sensor_id;sensor_type;location;lat;lon;timestamp;pressure;altitude;pressure_sealevel;temperature;humidity
6349;BME280;3207;42.648;23.406;2023-01-31T00:01:19;100143.34;;;1.79;79.88
6349;BME280;3207;42.648;23.406;2023-01-31T00:03:47;100150.19;;;1.80;79.45
6349;BME280;3207;42.648;23.406;2023-01-31T00:06:20;100147.72;;;1.77;79.67
6349;BME280;3207;42.648;23.406;2023-01-31T00:08:48;100148.59;;;1.76;79.73
6349;BME280;3207;42.648;23.406;2023-01-31T00:11:16;100154.78;;;1.70;80.57
6349;BME280;3207;42.648;23.406;2023-01-31T00:13:44;100166.03;;;1.69;80.56
6349;BME280;3207;42.648;23.406;2023-01-31T00:16:13;100166.91;;;1.68;80.64
6349;BME280;3207;42.648;23.406;2023-01-31T00:18:40;100172.06;;;1.68;80.60
6349;BME280;3207;42.648;23.406;2023-01-31T00:21:07;100160.97;;;1.66;80.67
6349;BME280;3207;42.648;23.406;2023-01-31T00:23:36;100171.41;;;1.62;81.10
6349;BME280;3207;42.648;23.406;2023-01-31T00:26:08;100168.88;;;1.60;81.08
6349;BME280;3207;42.648;23.406;2023-01-31T00:28:35;100174.81;;;1.62;81.15
6349;BME280;3207;42.648;23.406;2023-01-31T00:31:02;100176.41;;;1.66;81.01
6349;BME280;3207;42.648;23.406;2023-01-31T00:33:29;100174.69;;;1.67;81.13
6349;BME280;3207;42.648;23.406;2023-01-31T00:35:55;100173.00;;;1.66;80.81
6349;BME280;3207;42.648;23.406;2023-01-31T00:38:22;100172.22;;;1.64;80.87
6349;BME280;3207;42.648;23.406;2023-01-31T00:40:53;100167.06;;;1.64;81.40
6349;BME280;3207;42.648;23.406;2023-01-31T00:43:20;100181.84;;;1.59;81.45
6349;BME280;3207;42.648;23.406;2023-01-31T00:45:47;100175.00;;;1.58;81.69
6349;BME280;3207;42.648;23.406;2023-01-31T00:48:14;100171.72;;;1.53;82.16
6349;BME280;3207;42.648;23.406;2023-01-31T00:50:41;100166.63;;;1.51;81.82
6349;BME280;3207;42.648;23.406;2023-01-31T00:53:08;100162.66;;;1.41;82.09
6349;BME280;3207;42.648;23.406;2023-01-31T00:55:34;100158.25;;;1.44;82.69
6349;BME280;3207;42.648;23.406;2023-01-31T00:58:03;100162.34;;;1.50;82.34
6349;BME280;3207;42.648;23.406;2023-01-31T01:00:30;100171.94;;;1.46;82.61
6349;BME280;3207;42.648;23.406;2023-01-31T01:02:57;100173.19;;;1.35;83.22
6349;BME280;3207;42.648;23.406;2023-01-31T01:05:24;100172.34;;;1.34;83.44
6349;BME280;3207;42.648;23.406;2023-01-31T01:07:51;100168.75;;;1.38;83.72
6349;BME280;3207;42.648;23.406;2023-01-31T01:10:17;100172.97;;;1.41;83.17
6349;BME280;3207;42.648;23.406;2023-01-31T01:12:44;100183.22;;;1.42;83.29
6349;BME280;3207;42.648;23.406;2023-01-31T01:15:13;100191.66;;;1.48;82.70
6349;BME280;3207;42.648;23.406;2023-01-31T01:17:39;100198.41;;;1.50;82.95
6349;BME280;3207;42.648;23.406;2023-01-31T01:20:08;100195.00;;;1.50;82.58
6349;BME280;3207;42.648;23.406;2023-01-31T01:22:35;100193.22;;;1.52;82.45
6349;BME280;3207;42.648;23.406;2023-01-31T01:25:03;100201.00;;;1.50;82.06
6349;BME280;3207;42.648;23.406;2023-01-31T01:27:30;100198.47;;;1.48;82.27
6349;BME280;3207;42.648;23.406;2023-01-31T01:29:57;100201.03;;;1.48;82.27
6349;BME280;3207;42.648;23.406;2023-01-31T01:32:25;100197.69;;;1.46;81.96
6349;BME280;3207;42.648;23.406;2023-01-31T01:34:52;100196.09;;;1.42;82.12
6349;BME280;3207;42.648;23.406;2023-01-31T01:37:19;100190.44;;;1.31;82.25
6349;BME280;3207;42.648;23.406;2023-01-31T01:39:45;100195.69;;;1.28;82.49
6349;BME280;3207;42.648;23.406;2023-01-31T01:42:14;100176.81;;;1.28;83.06
6349;BME280;3207;42.648;23.406;2023-01-31T01:44:48;100208.47;;;1.31;83.06
6349;BME280;3207;42.648;23.406;2023-01-31T01:47:24;100210.44;;;1.23;83.42
6349;BME280;3207;42.648;23.406;2023-01-31T01:49:58;100218.13;;;1.25;83.37
6349;BME280;3207;42.648;23.406;2023-01-31T01:52:29;100216.53;;;1.21;83.66
6349;BME280;3207;42.648;23.406;2023-01-31T01:54:59;100219.25;;;1.16;83.66
6349;BME280;3207;42.648;23.406;2023-01-31T01:57:31;100221.03;;;1.14;83.56
6349;BME280;3207;42.648;23.406;2023-01-31T02:00:07;100219.34;;;1.13;83.88
6349;BME280;3207;42.648;23.406;2023-01-31T02:02:36;100219.53;;;1.07;83.92
6349;BME280;3207;42.648;23.406;2023-01-31T02:05:06;100223.69;;;1.11;83.70
6349;BME280;3207;42.648;23.406;2023-01-31T02:07:34;100218.63;;;1.08;83.78
6349;BME280;3207;42.648;23.406;2023-01-31T02:10:05;100232.34;;;1.08;84.02
6349;BME280;3207;42.648;23.406;2023-01-31T02:12:34;100215.09;;;1.12;83.92
6349;BME280;3207;42.648;23.406;2023-01-31T02:15:02;100219.34;;;1.13;83.53
6349;BME280;3207;42.648;23.406;2023-01-31T02:17:29;100217.66;;;1.12;83.55
6349;BME280;3207;42.648;23.406;2023-01-31T02:20:11;100218.59;;;1.09;83.58
6349;BME280;3207;42.648;23.406;2023-01-31T02:22:46;100224.59;;;1.10;83.94
6349;BME280;3207;42.648;23.406;2023-01-31T02:25:47;100234.13;;;1.06;83.71
6349;BME280;3207;42.648;23.406;2023-01-31T02:28:46;100212.78;;;1.03;83.84
6349;BME280;3207;42.648;23.406;2023-01-31T02:34:29;100221.78;;;0.90;84.53
6349;BME280;3207;42.648;23.406;2023-01-31T02:37:04;100222.41;;;0.96;84.48
6349;BME280;3207;42.648;23.406;2023-01-31T02:39:42;100231.78;;;0.99;84.09
6349;BME280;3207;42.648;23.406;2023-01-31T02:42:17;100199.56;;;0.86;84.12
6349;BME280;3207;42.648;23.406;2023-01-31T02:44:49;100223.47;;;0.91;84.22
6349;BME280;3207;42.648;23.406;2023-01-31T02:47:52;100221.78;;;0.90;84.10
6349;BME280;3207;42.648;23.406;2023-01-31T02:50:27;100230.22;;;0.95;84.11
6349;BME280;3207;42.648;23.406;2023-01-31T02:52:59;100237.94;;;0.95;84.10
6349;BME280;3207;42.648;23.406;2023-01-31T02:55:32;100224.25;;;0.93;83.85
6349;BME280;3207;42.648;23.406;2023-01-31T02:58:19;100218.31;;;0.91;83.98
6349;BME280;3207;42.648;23.406;2023-01-31T03:00:48;100233.78;;;0.89;84.02
6349;BME280;3207;42.648;23.406;2023-01-31T03:03:19;100221.84;;;0.87;83.90
6349;BME280;3207;42.648;23.406;2023-01-31T03:08:55;100238.28;;;0.83;84.21
6349;BME280;3207;42.648;23.406;2023-01-31T03:11:28;100246.88;;;0.82;84.21
6349;BME280;3207;42.648;23.406;2023-01-31T03:14:02;100244.47;;;0.76;84.13
6349;BME280;3207;42.648;23.406;2023-01-31T03:16:36;100250.78;;;0.65;84.55
6349;BME280;3207;42.648;23.406;2023-01-31T03:19:27;100249.81;;;0.69;84.93
6349;BME280;3207;42.648;23.406;2023-01-31T03:21:58;100242.13;;;0.68;84.46
6349;BME280;3207;42.648;23.406;2023-01-31T03:24:29;100254.22;;;0.64;84.87
6349;BME280;3207;42.648;23.406;2023-01-31T03:26:57;100252.03;;;0.52;85.26
6349;BME280;3207;42.648;23.406;2023-01-31T03:29:27;100249.50;;;0.51;85.59
6349;BME280;3207;42.648;23.406;2023-01-31T03:31:57;100264.66;;;0.60;85.58
6349;BME280;3207;42.648;23.406;2023-01-31T03:34:26;100261.28;;;0.58;85.54
6349;BME280;3207;42.648;23.406;2023-01-31T03:36:56;100264.81;;;0.54;85.88
6349;BME280;3207;42.648;23.406;2023-01-31T03:39:34;100262.19;;;0.55;85.91
6349;BME280;3207;42.648;23.406;2023-01-31T03:42:05;100269.03;;;0.56;85.77
6349;BME280;3207;42.648;23.406;2023-01-31T03:44:42;100274.19;;;0.56;85.48
6349;BME280;3207;42.648;23.406;2023-01-31T03:47:15;100280.06;;;0.61;85.55
6349;BME280;3207;42.648;23.406;2023-01-31T03:49:44;100276.59;;;0.62;85.43
6349;BME280;3207;42.648;23.406;2023-01-31T03:52:16;100275.75;;;0.62;85.38
6349;BME280;3207;42.648;23.406;2023-01-31T03:54:54;100276.81;;;0.53;85.38
6349;BME280;3207;42.648;23.406;2023-01-31T03:57:27;100273.16;;;0.63;85.48
6349;BME280;3207;42.648;23.406;2023-01-31T03:59:57;100273.06;;;0.65;85.29
6349;BME280;3207;42.648;23.406;2023-01-31T04:02:31;100278.97;;;0.68;85.30
6349;BME280;3207;42.648;23.406;2023-01-31T04:05:03;100268.00;;;0.63;85.37
6349;BME280;3207;42.648;23.406;2023-01-31T04:07:32;100267.88;;;0.66;85.15
6349;BME280;3207;42.648;23.406;2023-01-31T04:10:00;100278.97;;;0.68;85.25
6349;BME280;3207;42.648;23.406;2023-01-31T04:12:35;100280.69;;;0.69;85.13
6349;BME280;3207;42.648;23.406;2023-01-31T04:15:03;100281.53;;;0.70;84.78
6349;BME280;3207;42.648;23.406;2023-01-31T04:17:30;100284.13;;;0.68;84.88
6349;BME280;3207;42.648;23.406;2023-01-31T04:19:57;100270.56;;;0.63;84.81
6349;BME280;3207;42.648;23.406;2023-01-31T04:22:24;100281.59;;;0.67;85.19
6349;BME280;3207;42.648;23.406;2023-01-31T04:24:51;100281.56;;;0.68;84.72
6349;BME280;3207;42.648;23.406;2023-01-31T04:27:19;100274.66;;;0.70;84.95
6349;BME280;3207;42.648;23.406;2023-01-31T04:29:46;100285.78;;;0.71;84.58
6349;BME280;3207;42.648;23.406;2023-01-31T04:32:13;100277.28;;;0.67;84.76
6349;BME280;3207;42.648;23.406;2023-01-31T04:34:39;100283.25;;;0.69;84.86
6349;BME280;3207;42.648;23.406;2023-01-31T04:37:06;100279.91;;;0.66;84.88
6349;BME280;3207;42.648;23.406;2023-01-31T04:39:33;100291.66;;;0.74;84.77
6349;BME280;3207;42.648;23.406;2023-01-31T04:42:00;100294.16;;;0.78;84.75
6349;BME280;3207;42.648;23.406;2023-01-31T04:44:28;100279.66;;;0.75;84.30
6349;BME280;3207;42.648;23.406;2023-01-31T04:46:55;100291.63;;;0.76;84.54
6349;BME280;3207;42.648;23.406;2023-01-31T04:49:21;100304.44;;;0.78;84.45
6349;BME280;3207;42.648;23.406;2023-01-31T04:51:48;100312.16;;;0.78;84.21
6349;BME280;3207;42.648;23.406;2023-01-31T04:54:15;100299.78;;;0.61;84.10
6349;BME280;3207;42.648;23.406;2023-01-31T04:56:42;100302.94;;;0.70;84.44
6349;BME280;3207;42.648;23.406;2023-01-31T04:59:08;100315.81;;;0.70;84.38
6349;BME280;3207;42.648;23.406;2023-01-31T05:01:37;100306.81;;;0.54;84.79
6349;BME280;3207;42.648;23.406;2023-01-31T05:04:03;100309.47;;;0.51;85.11
6349;BME280;3207;42.648;23.406;2023-01-31T05:06:30;100311.44;;;0.42;85.80
6349;BME280;3207;42.648;23.406;2023-01-31T05:08:57;100314.66;;;0.50;85.65
6349;BME280;3207;42.648;23.406;2023-01-31T05:11:26;100319.56;;;0.59;85.17
6349;BME280;3207;42.648;23.406;2023-01-31T05:13:52;100318.63;;;0.61;85.01
6349;BME280;3207;42.648;23.406;2023-01-31T05:16:19;100317.09;;;0.54;85.11
6349;BME280;3207;42.648;23.406;2023-01-31T05:18:47;100311.72;;;0.63;84.69
6349;BME280;3207;42.648;23.406;2023-01-31T05:21:15;100317.06;;;0.56;85.16
6349;BME280;3207;42.648;23.406;2023-01-31T05:23:42;100325.50;;;0.61;85.05
6349;BME280;3207;42.648;23.406;2023-01-31T05:26:09;100334.97;;;0.59;85.07
6349;BME280;3207;42.648;23.406;2023-01-31T05:28:36;100326.50;;;0.55;84.95
6349;BME280;3207;42.648;23.406;2023-01-31T05:31:04;100340.94;;;0.61;84.98
6349;BME280;3207;42.648;23.406;2023-01-31T05:33:32;100340.91;;;0.62;84.59
6349;BME280;3207;42.648;23.406;2023-01-31T05:36:01;100334.06;;;0.61;84.52
6349;BME280;3207;42.648;23.406;2023-01-31T05:38:28;100345.22;;;0.60;84.72
6349;BME280;3207;42.648;23.406;2023-01-31T05:40:55;100349.56;;;0.58;84.63
6349;BME280;3207;42.648;23.406;2023-01-31T05:43:21;100368.47;;;0.56;84.46
6349;BME280;3207;42.648;23.406;2023-01-31T05:45:48;100359.31;;;0.46;84.74
6349;BME280;3207;42.648;23.406;2023-01-31T05:48:15;100361.00;;;0.47;84.41
6349;BME280;3207;42.648;23.406;2023-01-31T05:50:42;100367.78;;;0.51;84.89
6349;BME280;3207;42.648;23.406;2023-01-31T05:53:10;100373.88;;;0.47;84.44
6349;BME280;3207;42.648;23.406;2023-01-31T05:55:37;100384.97;;;0.49;84.36
6349;BME280;3207;42.648;23.406;2023-01-31T05:58:03;100367.16;;;0.41;84.49
6349;BME280;3207;42.648;23.406;2023-01-31T06:00:30;100389.34;;;0.45;84.53
6349;BME280;3207;42.648;23.406;2023-01-31T06:02:57;100383.53;;;0.37;84.89
6349;BME280;3207;42.648;23.406;2023-01-31T06:05:24;100396.34;;;0.40;84.66
6349;BME280;3207;42.648;23.406;2023-01-31T06:07:51;100394.78;;;0.33;84.79
6349;BME280;3207;42.648;23.406;2023-01-31T06:10:20;100394.84;;;0.31;85.01
6349;BME280;3207;42.648;23.406;2023-01-31T06:12:47;100402.44;;;0.34;85.20
6349;BME280;3207;42.648;23.406;2023-01-31T06:15:14;100408.47;;;0.33;85.23
6349;BME280;3207;42.648;23.406;2023-01-31T06:17:41;100414.47;;;0.34;85.39
6349;BME280;3207;42.648;23.406;2023-01-31T06:20:09;100412.84;;;0.31;85.44
6349;BME280;3207;42.648;23.406;2023-01-31T06:22:36;100404.44;;;0.23;85.62
6349;BME280;3207;42.648;23.406;2023-01-31T06:25:03;100401.00;;;0.24;86.23
6349;BME280;3207;42.648;23.406;2023-01-31T06:27:32;100424.03;;;0.29;85.84
6349;BME280;3207;42.648;23.406;2023-01-31T06:29:59;100418.94;;;0.26;85.98
6349;BME280;3207;42.648;23.406;2023-01-31T06:32:26;100429.19;;;0.27;86.25
6349;BME280;3207;42.648;23.406;2023-01-31T06:34:53;100439.19;;;0.40;86.40
6349;BME280;3207;42.648;23.406;2023-01-31T06:37:20;100439.63;;;0.57;86.45
6349;BME280;3207;42.648;23.406;2023-01-31T06:39:47;100443.63;;;1.01;87.15
6349;BME280;3207;42.648;23.406;2023-01-31T06:42:13;100440.78;;;1.70;87.07
6349;BME280;3207;42.648;23.406;2023-01-31T06:44:41;100443.47;;;2.49;83.21
6349;BME280;3207;42.648;23.406;2023-01-31T06:47:08;100451.72;;;3.10;78.29
6349;BME280;3207;42.648;23.406;2023-01-31T06:49:37;100449.25;;;3.55;77.32
6349;BME280;3207;42.648;23.406;2023-01-31T06:52:04;100451.53;;;3.86;76.06
6349;BME280;3207;42.648;23.406;2023-01-31T06:54:31;100450.56;;;4.54;73.58
6349;BME280;3207;42.648;23.406;2023-01-31T06:56:57;100460.25;;;5.50;70.75
6349;BME280;3207;42.648;23.406;2023-01-31T06:59:24;100468.91;;;6.43;65.72
6349;BME280;3207;42.648;23.406;2023-01-31T07:01:53;100458.25;;;7.34;60.47
6349;BME280;3207;42.648;23.406;2023-01-31T07:04:19;100468.59;;;8.47;56.51
6349;BME280;3207;42.648;23.406;2023-01-31T07:06:46;100476.81;;;9.72;53.22
6349;BME280;3207;42.648;23.406;2023-01-31T07:09:13;100487.19;;;10.95;48.60
6349;BME280;3207;42.648;23.406;2023-01-31T07:11:40;100480.69;;;12.02;45.81
6349;BME280;3207;42.648;23.406;2023-01-31T07:14:07;100492.69;;;13.24;42.71
6349;BME280;3207;42.648;23.406;2023-01-31T07:16:34;100509.63;;;14.42;39.38
6349;BME280;3207;42.648;23.406;2023-01-31T07:19:03;100510.06;;;15.53;36.91
6349;BME280;3207;42.648;23.406;2023-01-31T07:21:30;100525.84;;;16.63;34.17
6349;BME280;3207;42.648;23.406;2023-01-31T07:23:57;100524.53;;;17.64;32.27
6349;BME280;3207;42.648;23.406;2023-01-31T07:26:24;100534.81;;;18.76;30.95
6349;BME280;3207;42.648;23.406;2023-01-31T07:28:51;100526.09;;;19.97;29.33
6349;BME280;3207;42.648;23.406;2023-01-31T07:31:18;100526.53;;;20.93;27.24
6349;BME280;3207;42.648;23.406;2023-01-31T07:33:45;100540.22;;;22.02;25.92
6349;BME280;3207;42.648;23.406;2023-01-31T07:36:14;100542.75;;;22.88;24.12
6349;BME280;3207;42.648;23.406;2023-01-31T07:38:44;100545.38;;;23.71;22.64
6349;BME280;3207;42.648;23.406;2023-01-31T07:41:11;100564.09;;;24.51;21.80
6349;BME280;3207;42.648;23.406;2023-01-31T07:43:37;100557.81;;;25.16;21.01
6349;BME280;3207;42.648;23.406;2023-01-31T07:46:06;100560.66;;;25.98;20.43
6349;BME280;3207;42.648;23.406;2023-01-31T07:48:35;100572.16;;;26.87;19.60
6349;BME280;3207;42.648;23.406;2023-01-31T07:51:02;100575.31;;;27.77;19.12
6349;BME280;3207;42.648;23.406;2023-01-31T07:53:32;100569.06;;;28.60;17.78
6349;BME280;3207;42.648;23.406;2023-01-31T07:56:07;100579.59;;;29.25;17.21
6349;BME280;3207;42.648;23.406;2023-01-31T07:58:35;100578.50;;;29.82;16.42
6349;BME280;3207;42.648;23.406;2023-01-31T08:01:02;100581.72;;;30.45;15.99
6349;BME280;3207;42.648;23.406;2023-01-31T08:03:46;100580.13;;;31.27;16.10
6349;BME280;3207;42.648;23.406;2023-01-31T08:06:14;100571.59;;;31.89;15.19
6349;BME280;3207;42.648;23.406;2023-01-31T08:08:42;100585.41;;;32.16;14.68
6349;BME280;3207;42.648;23.406;2023-01-31T08:11:10;100576.75;;;32.42;14.56
6349;BME280;3207;42.648;23.406;2023-01-31T08:13:37;100572.13;;;32.54;14.08
6349;BME280;3207;42.648;23.406;2023-01-31T08:16:06;100591.28;;;32.64;14.14
6349;BME280;3207;42.648;23.406;2023-01-31T08:18:34;100595.03;;;32.75;14.02
6349;BME280;3207;42.648;23.406;2023-01-31T08:21:01;100596.78;;;32.81;14.02
6349;BME280;3207;42.648;23.406;2023-01-31T08:23:28;100605.22;;;32.85;13.92
6349;BME280;3207;42.648;23.406;2023-01-31T08:26:01;100593.31;;;32.86;13.67
6349;BME280;3207;42.648;23.406;2023-01-31T08:28:28;100585.31;;;32.91;13.65
6349;BME280;3207;42.648;23.406;2023-01-31T08:30:55;100585.66;;;33.11;13.82
6349;BME280;3207;42.648;23.406;2023-01-31T08:33:23;100598.84;;;33.36;13.71
6349;BME280;3207;42.648;23.406;2023-01-31T08:35:49;100601.03;;;33.39;13.34
6349;BME280;3207;42.648;23.406;2023-01-31T08:38:16;100609.16;;;33.39;13.51
6349;BME280;3207;42.648;23.406;2023-01-31T08:40:43;100602.69;;;33.57;13.17
6349;BME280;3207;42.648;23.406;2023-01-31T08:43:12;100599.56;;;34.03;13.30
6349;BME280;3207;42.648;23.406;2023-01-31T08:45:39;100594.94;;;34.69;12.73
6349;BME280;3207;42.648;23.406;2023-01-31T08:48:05;100596.16;;;35.10;12.29
6349;BME280;3207;42.648;23.406;2023-01-31T08:50:32;100596.16;;;35.37;12.63
6349;BME280;3207;42.648;23.406;2023-01-31T08:53:01;100603.84;;;35.50;12.27
6349;BME280;3207;42.648;23.406;2023-01-31T08:55:30;100619.31;;;35.77;11.92
6349;BME280;3207;42.648;23.406;2023-01-31T08:57:57;100613.06;;;36.23;12.13
6349;BME280;3207;42.648;23.406;2023-01-31T09:00:28;100629.47;;;36.49;11.93
6349;BME280;3207;42.648;23.406;2023-01-31T09:02:56;100628.72;;;36.63;11.71
6349;BME280;3207;42.648;23.406;2023-01-31T09:05:25;100626.34;;;36.92;11.28
6349;BME280;3207;42.648;23.406;2023-01-31T09:07:53;100629.63;;;36.94;11.50
6349;BME280;3207;42.648;23.406;2023-01-31T09:10:21;100629.66;;;37.20;11.17
6349;BME280;3207;42.648;23.406;2023-01-31T09:12:49;100636.75;;;37.26;11.51
6349;BME280;3207;42.648;23.406;2023-01-31T09:15:16;100624.19;;;37.45;11.34
6349;BME280;3207;42.648;23.406;2023-01-31T09:17:44;100635.63;;;37.72;11.24
6349;BME280;3207;42.648;23.406;2023-01-31T09:20:11;100638.06;;;38.69;12.04
6349;BME280;3207;42.648;23.406;2023-01-31T09:22:38;100605.22;;;39.47;11.18
6349;BME280;3207;42.648;23.406;2023-01-31T09:25:07;100647.19;;;40.19;10.24
6349;BME280;3207;42.648;23.406;2023-01-31T09:27:35;100643.09;;;40.16;10.26
6349;BME280;3207;42.648;23.406;2023-01-31T09:30:04;100639.06;;;39.85;10.00
6349;BME280;3207;42.648;23.406;2023-01-31T09:32:31;100637.06;;;39.67;10.03
6349;BME280;3207;42.648;23.406;2023-01-31T09:34:59;100646.31;;;40.00;9.88
6349;BME280;3207;42.648;23.406;2023-01-31T09:37:28;100654.00;;;40.21;9.82
6349;BME280;3207;42.648;23.406;2023-01-31T09:39:55;100643.19;;;40.35;10.12
6349;BME280;3207;42.648;23.406;2023-01-31T09:42:25;100653.31;;;40.77;9.98
6349;BME280;3207;42.648;23.406;2023-01-31T09:45:01;100648.13;;;41.13;9.84
6349;BME280;3207;42.648;23.406;2023-01-31T09:47:32;100633.50;;;40.99;9.28
6349;BME280;3207;42.648;23.406;2023-01-31T09:50:04;100642.91;;;41.30;9.14
6349;BME280;3207;42.648;23.406;2023-01-31T09:52:33;100634.66;;;41.77;9.17
6349;BME280;3207;42.648;23.406;2023-01-31T09:55:00;100641.63;;;42.43;9.39
6349;BME280;3207;42.648;23.406;2023-01-31T09:57:37;100623.38;;;42.83;8.79
6349;BME280;3207;42.648;23.406;2023-01-31T10:00:17;100641.81;;;43.18;8.86
6349;BME280;3207;42.648;23.406;2023-01-31T10:05:58;100636.00;;;43.73;8.25
6349;BME280;3207;42.648;23.406;2023-01-31T10:08:38;100609.03;;;44.01;7.63
6349;BME280;3207;42.648;23.406;2023-01-31T10:11:10;100641.75;;;44.42;8.14
6349;BME280;3207;42.648;23.406;2023-01-31T10:13:42;100637.72;;;44.65;8.11
6349;BME280;3207;42.648;23.406;2023-01-31T10:16:22;100644.88;;;44.83;7.47
6349;BME280;3207;42.648;23.406;2023-01-31T10:18:56;100633.84;;;45.01;7.63
6349;BME280;3207;42.648;23.406;2023-01-31T10:21:30;100637.41;;;44.93;7.32
6349;BME280;3207;42.648;23.406;2023-01-31T10:24:02;100632.06;;;44.88;7.67
6349;BME280;3207;42.648;23.406;2023-01-31T10:26:34;100620.69;;;44.98;7.67
6349;BME280;3207;42.648;23.406;2023-01-31T10:29:08;100619.69;;;44.94;7.59
6349;BME280;3207;42.648;23.406;2023-01-31T10:31:41;100611.28;;;44.81;7.71
6349;BME280;3207;42.648;23.406;2023-01-31T10:34:12;100610.63;;;45.02;7.81
6349;BME280;3207;42.648;23.406;2023-01-31T10:36:48;100598.91;;;44.96;7.54
6349;BME280;3207;42.648;23.406;2023-01-31T10:39:20;100604.91;;;45.24;7.03
6349;BME280;3207;42.648;23.406;2023-01-31T10:42:09;100583.97;;;45.23;7.02
6349;BME280;3207;42.648;23.406;2023-01-31T10:44:46;100606.50;;;45.34;6.82
6349;BME280;3207;42.648;23.406;2023-01-31T10:47:17;100598.84;;;45.39;6.65
6349;BME280;3207;42.648;23.406;2023-01-31T10:49:45;100602.03;;;45.58;6.90
6349;BME280;3207;42.648;23.406;2023-01-31T10:52:31;100597.13;;;45.00;7.14
6349;BME280;3207;42.648;23.406;2023-01-31T10:55:12;100590.16;;;44.85;7.16
6349;BME280;3207;42.648;23.406;2023-01-31T10:57:48;100582.38;;;44.88;6.61
6349;BME280;3207;42.648;23.406;2023-01-31T11:00:18;100563.72;;;44.59;7.11
6349;BME280;3207;42.648;23.406;2023-01-31T11:02:46;100576.84;;;44.70;6.75
6349;BME280;3207;42.648;23.406;2023-01-31T11:05:15;100578.94;;;44.99;6.86
6349;BME280;3207;42.648;23.406;2023-01-31T11:07:45;100570.41;;;45.39;6.87
6349;BME280;3207;42.648;23.406;2023-01-31T11:10:22;100581.38;;;45.65;6.68
6349;BME280;3207;42.648;23.406;2023-01-31T11:12:55;100575.16;;;45.68;6.47
6349;BME280;3207;42.648;23.406;2023-01-31T11:15:24;100572.91;;;45.99;6.42
6349;BME280;3207;42.648;23.406;2023-01-31T11:17:56;100576.41;;;46.38;6.42
6349;BME280;3207;42.648;23.406;2023-01-31T11:20:26;100567.06;;;46.21;6.38
6349;BME280;3207;42.648;23.406;2023-01-31T11:22:57;100540.28;;;46.34;6.52
6349;BME280;3207;42.648;23.406;2023-01-31T11:25:27;100571.00;;;46.62;6.19
6349;BME280;3207;42.648;23.406;2023-01-31T11:27:56;100556.81;;;46.63;6.43
6349;BME280;3207;42.648;23.406;2023-01-31T11:30:27;100561.13;;;46.73;6.46
6349;BME280;3207;42.648;23.406;2023-01-31T11:32:55;100562.88;;;46.57;6.16
6349;BME280;3207;42.648;23.406;2023-01-31T11:35:25;100552.81;;;46.73;5.93
6349;BME280;3207;42.648;23.406;2023-01-31T11:37:54;100550.75;;;46.70;6.12
6349;BME280;3207;42.648;23.406;2023-01-31T11:40:28;100554.66;;;46.48;5.93
6349;BME280;3207;42.648;23.406;2023-01-31T11:42:57;100546.94;;;46.54;6.08
6349;BME280;3207;42.648;23.406;2023-01-31T11:45:26;100539.47;;;46.87;5.73
6349;BME280;3207;42.648;23.406;2023-01-31T11:47:56;100534.81;;;47.00;5.60
6349;BME280;3207;42.648;23.406;2023-01-31T11:50:26;100536.38;;;46.89;5.74
6349;BME280;3207;42.648;23.406;2023-01-31T11:52:58;100529.88;;;46.52;5.54
6349;BME280;3207;42.648;23.406;2023-01-31T11:55:34;100532.72;;;46.22;5.65
6349;BME280;3207;42.648;23.406;2023-01-31T11:58:06;100531.41;;;45.99;5.81
6349;BME280;3207;42.648;23.406;2023-01-31T12:00:49;100527.94;;;45.52;5.22
6349;BME280;3207;42.648;23.406;2023-01-31T12:03:17;100520.84;;;44.70;5.99
6349;BME280;3207;42.648;23.406;2023-01-31T12:05:45;100511.56;;;43.97;5.69
6349;BME280;3207;42.648;23.406;2023-01-31T12:08:29;100497.22;;;43.29;6.14
6349;BME280;3207;42.648;23.406;2023-01-31T12:11:03;100487.28;;;42.44;6.17
6349;BME280;3207;42.648;23.406;2023-01-31T12:13:45;100487.13;;;41.77;6.33
6349;BME280;3207;42.648;23.406;2023-01-31T12:16:12;100498.34;;;41.07;7.35
6349;BME280;3207;42.648;23.406;2023-01-31T12:18:52;100504.25;;;39.64;6.96
6349;BME280;3207;42.648;23.406;2023-01-31T12:21:37;100489.16;;;36.51;8.25
6349;BME280;3207;42.648;23.406;2023-01-31T12:24:15;100483.84;;;35.05;9.23
6349;BME280;3207;42.648;23.406;2023-01-31T12:26:50;100470.13;;;33.82;9.94
6349;BME280;3207;42.648;23.406;2023-01-31T12:29:29;100463.56;;;32.39;10.32
6349;BME280;3207;42.648;23.406;2023-01-31T12:32:11;100464.31;;;30.54;11.60
6349;BME280;3207;42.648;23.406;2023-01-31T12:35:01;100464.09;;;28.60;12.01
6349;BME280;3207;42.648;23.406;2023-01-31T12:37:40;100452.84;;;27.29;12.79
6349;BME280;3207;42.648;23.406;2023-01-31T12:40:24;100445.41;;;25.85;13.69
6349;BME280;3207;42.648;23.406;2023-01-31T12:42:58;100440.97;;;24.80;14.14
6349;BME280;3207;42.648;23.406;2023-01-31T12:45:36;100442.13;;;23.93;15.25
6349;BME280;3207;42.648;23.406;2023-01-31T12:48:37;100432.81;;;23.15;15.23
6349;BME280;3207;42.648;23.406;2023-01-31T12:51:23;100433.03;;;22.53;15.78
6349;BME280;3207;42.648;23.406;2023-01-31T12:54:03;100437.81;;;22.04;16.12
6349;BME280;3207;42.648;23.406;2023-01-31T12:56:44;100433.97;;;21.21;16.97
6349;BME280;3207;42.648;23.406;2023-01-31T12:59:25;100437.97;;;20.84;18.78
6349;BME280;3207;42.648;23.406;2023-01-31T13:02:13;100438.97;;;20.51;19.60
6349;BME280;3207;42.648;23.406;2023-01-31T13:04:46;100442.31;;;20.02;19.85
6349;BME280;3207;42.648;23.406;2023-01-31T13:07:18;100437.84;;;19.61;20.37
6349;BME280;3207;42.648;23.406;2023-01-31T13:09:50;100441.31;;;19.01;21.15
6349;BME280;3207;42.648;23.406;2023-01-31T13:12:22;100432.22;;;19.04;21.37
6349;BME280;3207;42.648;23.406;2023-01-31T13:14:57;100439.66;;;19.00;21.66
6349;BME280;3207;42.648;23.406;2023-01-31T13:17:29;100427.56;;;18.80;21.46
6349;BME280;3207;42.648;23.406;2023-01-31T13:20:02;100448.78;;;18.80;21.52
6349;BME280;3207;42.648;23.406;2023-01-31T13:22:46;100444.63;;;18.60;21.36
6349;BME280;3207;42.648;23.406;2023-01-31T13:25:19;100400.13;;;18.28;21.17
6349;BME280;3207;42.648;23.406;2023-01-31T13:27:53;100432.53;;;18.57;21.19
6349;BME280;3207;42.648;23.406;2023-01-31T13:30:32;100429.72;;;18.59;21.09
6349;BME280;3207;42.648;23.406;2023-01-31T13:35:56;100429.22;;;18.46;21.14
6349;BME280;3207;42.648;23.406;2023-01-31T13:38:29;100442.41;;;18.38;21.64